createdAt,value
2018-01-02T00:00:56.338Z,995.44
2018-01-02T00:01:56.352Z,995.48
2018-01-02T00:02:56.365Z,995.47
2018-01-02T00:03:56.379Z,995.51
2018-01-02T00:04:56.391Z,995.56
2018-01-02T00:05:56.504Z,995.54
2018-01-02T00:06:56.417Z,995.61
2018-01-02T00:07:56.430Z,995.61
2018-01-02T00:08:56.444Z,995.59
2018-01-02T00:09:56.455Z,995.62
2018-01-02T00:10:56.470Z,995.63
2018-01-02T00:11:56.482Z,995.63
2018-01-02T00:12:56.495Z,995.66
2018-01-02T00:13:56.512Z,995.67
2018-01-02T00:14:56.521Z,995.75
2018-01-02T00:15:56.535Z,995.74
2018-01-02T00:16:56.546Z,995.71
2018-01-02T00:17:56.571Z,995.76
2018-01-02T00:18:56.572Z,995.80
2018-01-02T00:19:56.587Z,995.78
2018-01-02T00:20:56.698Z,995.81
2018-01-02T00:21:56.610Z,995.80
2018-01-02T00:22:56.621Z,995.86
2018-01-02T00:23:56.635Z,995.86
2018-01-02T00:24:56.747Z,995.88
2018-01-02T00:25:56.659Z,995.94
2018-01-02T00:26:56.672Z,995.98
2018-01-02T00:27:56.685Z,995.94
2018-01-02T00:28:56.698Z,995.99
2018-01-02T00:29:56.717Z,995.99
2018-01-02T00:30:56.722Z,996.02
2018-01-02T00:31:56.735Z,996.03
2018-01-02T00:32:56.749Z,995.97
2018-01-02T00:33:56.760Z,996.10
2018-01-02T00:34:56.772Z,996.08
2018-01-02T00:35:56.790Z,996.14
2018-01-02T00:36:56.798Z,996.16
2018-01-02T00:37:56.832Z,996.18
2018-01-02T00:38:56.823Z,996.17
2018-01-02T00:39:56.840Z,996.27
2018-01-02T00:40:56.849Z,996.28
2018-01-02T00:41:56.863Z,996.27
2018-01-02T00:42:56.880Z,996.33
2018-01-02T00:43:56.887Z,996.29
2018-01-02T00:44:56.897Z,996.32
2018-01-02T00:45:56.912Z,996.34
2018-01-02T00:46:56.923Z,996.38
2018-01-02T00:47:56.937Z,996.41
2018-01-02T00:48:56.955Z,996.44
2018-01-02T00:49:56.962Z,996.46
2018-01-02T00:50:56.972Z,996.45
2018-01-02T00:51:56.985Z,996.45
2018-01-02T00:52:56.998Z,996.50
2018-01-02T00:53:57.012Z,996.48
2018-01-02T00:54:57.022Z,996.54
2018-01-02T00:55:57.036Z,996.60
2018-01-02T00:56:57.047Z,996.56
2018-01-02T00:57:57.061Z,996.56
2018-01-02T00:58:57.074Z,996.56
2018-01-02T00:59:57.087Z,996.58
2018-01-02T01:00:57.098Z,996.66
2018-01-02T01:01:57.111Z,996.67
2018-01-02T01:02:57.123Z,996.67
2018-01-02T01:03:57.135Z,996.74
2018-01-02T01:04:57.153Z,996.68
2018-01-02T01:05:57.161Z,996.75
2018-01-02T01:06:57.173Z,996.78
2018-01-02T01:07:57.188Z,996.84
2018-01-02T01:08:57.400Z,996.83
2018-01-02T01:09:57.211Z,996.78
2018-01-02T01:10:57.224Z,996.86
2018-01-02T01:11:57.235Z,996.83
2018-01-02T01:12:57.248Z,996.85
2018-01-02T01:13:57.265Z,996.89
2018-01-02T01:14:57.272Z,996.87
2018-01-02T01:15:57.287Z,996.95
2018-01-02T01:16:57.298Z,996.94
2018-01-02T01:17:57.318Z,996.94
2018-01-02T01:18:57.321Z,997.04
2018-01-02T01:19:57.335Z,997.02
2018-01-02T01:20:57.349Z,997.05
2018-01-02T01:21:57.360Z,997.08
2018-01-02T01:22:57.372Z,997.09
2018-01-02T01:23:57.392Z,997.16
2018-01-02T01:24:57.399Z,997.13
2018-01-02T01:25:57.418Z,997.18
2018-01-02T01:26:57.421Z,997.21
2018-01-02T01:27:57.471Z,997.25
2018-01-02T01:28:57.451Z,997.26
2018-01-02T01:29:57.478Z,997.24
2018-01-02T01:30:57.470Z,997.28
2018-01-02T01:31:57.493Z,997.28
2018-01-02T01:32:57.496Z,997.27
2018-01-02T01:33:57.514Z,997.34
2018-01-02T01:34:57.521Z,997.31
2018-01-02T01:35:57.533Z,997.33
2018-01-02T01:36:57.546Z,997.40
2018-01-02T01:37:57.563Z,997.39
2018-01-02T01:38:57.569Z,997.40
2018-01-02T01:39:57.587Z,997.46
2018-01-02T01:40:57.596Z,997.48
2018-01-02T01:41:57.609Z,997.50
2018-01-02T01:42:57.673Z,997.54
2018-01-02T01:43:57.639Z,997.56
2018-01-02T01:44:57.645Z,997.57
2018-01-02T01:45:57.663Z,997.60
2018-01-02T01:46:57.668Z,997.60
2018-01-02T01:47:57.681Z,997.60
2018-01-02T01:48:57.699Z,997.63
2018-01-02T01:49:57.705Z,997.66
2018-01-02T01:50:57.718Z,997.66
2018-01-02T01:51:57.731Z,997.69
2018-01-02T01:52:57.743Z,997.69
2018-01-02T01:53:57.758Z,997.69
2018-01-02T01:54:57.766Z,997.73
2018-01-02T01:55:57.786Z,997.70
2018-01-02T01:56:57.792Z,997.73
2018-01-02T01:57:57.805Z,997.76
2018-01-02T01:58:57.817Z,997.78
2018-01-02T01:59:57.829Z,997.82
2018-01-02T02:00:57.841Z,997.84
2018-01-02T02:01:57.855Z,997.90
2018-01-02T02:02:57.867Z,997.91
2018-01-02T02:03:57.878Z,997.91
2018-01-02T02:04:57.897Z,997.94
2018-01-02T02:05:57.905Z,997.91
2018-01-02T02:06:57.919Z,997.90
2018-01-02T02:07:57.933Z,997.92
2018-01-02T02:08:57.952Z,997.96
2018-01-02T02:09:57.953Z,997.98
2018-01-02T02:10:57.969Z,998.04
2018-01-02T02:11:57.977Z,997.98
2018-01-02T02:12:57.991Z,997.99
2018-01-02T02:13:58.009Z,998.01
2018-01-02T02:14:58.016Z,998.05
2018-01-02T02:15:58.030Z,998.10
2018-01-02T02:16:58.042Z,998.02
2018-01-02T02:17:58.055Z,998.04
2018-01-02T02:18:58.068Z,998.07
2018-01-02T02:19:58.083Z,998.05
2018-01-02T02:20:58.094Z,998.09
2018-01-02T02:21:58.104Z,998.07
2018-01-02T02:22:58.116Z,998.09
2018-01-02T02:23:58.128Z,998.08
2018-01-02T02:24:58.141Z,998.04
2018-01-02T02:25:58.158Z,998.09
2018-01-02T02:26:58.165Z,998.06
2018-01-02T02:27:58.177Z,998.08
2018-01-02T02:28:58.194Z,998.05
2018-01-02T02:29:58.205Z,998.05
2018-01-02T02:30:58.217Z,998.03
2018-01-02T02:31:58.228Z,998.10
2018-01-02T02:32:58.240Z,998.07
2018-01-02T02:33:58.253Z,998.11
2018-01-02T02:34:58.270Z,998.08
2018-01-02T02:35:58.281Z,998.12
2018-01-02T02:36:58.289Z,998.12
2018-01-02T02:37:58.304Z,998.10
2018-01-02T02:38:58.316Z,998.09
2018-01-02T02:39:58.327Z,998.13
2018-01-02T02:40:58.350Z,998.16
2018-01-02T02:41:58.353Z,998.14
2018-01-02T02:42:58.365Z,998.12
2018-01-02T02:43:58.377Z,998.14
2018-01-02T02:44:58.393Z,998.15
2018-01-02T02:45:58.402Z,998.18
2018-01-02T02:46:58.416Z,998.13
2018-01-02T02:47:58.428Z,998.15
2018-01-02T02:48:58.440Z,998.12
2018-01-02T02:49:58.454Z,998.19
2018-01-02T02:50:58.469Z,998.21
2018-01-02T02:51:58.478Z,998.24
2018-01-02T02:52:58.490Z,998.26
2018-01-02T02:53:58.507Z,998.25
2018-01-02T02:54:58.516Z,998.29
2018-01-02T02:55:58.530Z,998.32
2018-01-02T02:56:58.541Z,998.27
2018-01-02T02:57:58.555Z,998.33
2018-01-02T02:58:58.566Z,998.32
2018-01-02T02:59:58.579Z,998.39
2018-01-02T03:00:58.595Z,998.36
2018-01-02T03:01:58.606Z,998.38
2018-01-02T03:02:58.618Z,998.35
2018-01-02T03:03:58.630Z,998.40
2018-01-02T03:04:58.644Z,998.34
2018-01-02T03:05:58.659Z,998.36
2018-01-02T03:06:58.669Z,998.39
2018-01-02T03:07:58.680Z,998.43
2018-01-02T03:08:58.694Z,998.42
2018-01-02T03:09:58.706Z,998.43
2018-01-02T03:10:58.718Z,998.46
2018-01-02T03:11:58.733Z,998.48
2018-01-02T03:12:58.746Z,998.48
2018-01-02T03:13:58.759Z,998.48
2018-01-02T03:14:58.773Z,998.46
2018-01-02T03:15:58.785Z,998.51
2018-01-02T03:16:58.794Z,998.49
2018-01-02T03:17:58.808Z,998.55
2018-01-02T03:18:58.818Z,998.56
2018-01-02T03:19:58.835Z,998.57
2018-01-02T03:20:58.851Z,998.55
2018-01-02T03:21:58.858Z,998.57
2018-01-02T03:22:58.872Z,998.58
2018-01-02T03:23:58.883Z,998.58
2018-01-02T03:24:58.896Z,998.60
2018-01-02T03:25:58.908Z,998.65
2018-01-02T03:26:58.921Z,998.66
2018-01-02T03:27:58.935Z,998.64
2018-01-02T03:28:58.952Z,998.66
2018-01-02T03:29:58.961Z,998.65
2018-01-02T03:30:58.973Z,998.61
2018-01-02T03:31:58.983Z,998.64
2018-01-02T03:32:59.001Z,998.63
2018-01-02T03:33:59.011Z,998.66
2018-01-02T03:34:59.027Z,998.68
2018-01-02T03:35:59.035Z,998.71
2018-01-02T03:36:59.048Z,998.75
2018-01-02T03:37:59.061Z,998.77
2018-01-02T03:38:59.071Z,998.77
2018-01-02T03:39:59.084Z,998.82
2018-01-02T03:40:59.096Z,998.79
2018-01-02T03:41:59.111Z,998.85
2018-01-02T03:42:59.123Z,998.87
2018-01-02T03:43:59.140Z,998.89
2018-01-02T03:44:59.147Z,998.87
2018-01-02T03:45:59.162Z,998.83
2018-01-02T03:46:59.174Z,998.84
2018-01-02T03:47:59.186Z,998.87
2018-01-02T03:48:59.197Z,998.86
2018-01-02T03:49:59.211Z,998.88
2018-01-02T03:50:59.222Z,998.87
2018-01-02T03:51:59.236Z,998.86
2018-01-02T03:52:59.249Z,998.91
2018-01-02T03:53:59.260Z,998.96
2018-01-02T03:54:59.273Z,998.97
2018-01-02T03:55:59.285Z,998.99
2018-01-02T03:56:59.298Z,999.01
2018-01-02T03:57:59.309Z,999.00
2018-01-02T03:58:59.323Z,999.02
2018-01-02T03:59:59.337Z,999.02
2018-01-02T04:00:59.349Z,999.05
2018-01-02T04:01:59.362Z,999.11
2018-01-02T04:02:59.374Z,999.08
2018-01-02T04:03:59.385Z,999.06
2018-01-02T04:04:59.400Z,999.11
2018-01-02T04:05:59.414Z,999.08
2018-01-02T04:06:59.424Z,999.11
2018-01-02T04:07:59.436Z,999.12
2018-01-02T04:08:59.451Z,999.18
2018-01-02T04:09:59.461Z,999.20
2018-01-02T04:10:59.473Z,999.14
2018-01-02T04:11:59.486Z,999.17
2018-01-02T04:12:59.498Z,999.19
2018-01-02T04:13:59.511Z,999.16
2018-01-02T04:14:59.522Z,999.21
2018-01-02T04:15:59.537Z,999.22
2018-01-02T04:16:59.547Z,999.22
2018-01-02T04:17:59.565Z,999.23
2018-01-02T04:18:59.574Z,999.26
2018-01-02T04:19:59.585Z,999.22
2018-01-02T04:20:59.602Z,999.26
2018-01-02T04:21:59.610Z,999.27
2018-01-02T04:22:59.622Z,999.29
2018-01-02T04:23:59.640Z,999.33
2018-01-02T04:24:59.649Z,999.31
2018-01-02T04:25:59.660Z,999.32
2018-01-02T04:26:59.673Z,999.34
2018-01-02T04:27:59.685Z,999.36
2018-01-02T04:28:59.697Z,999.35
2018-01-02T04:29:59.718Z,999.35
2018-01-02T04:30:59.722Z,999.39
2018-01-02T04:31:59.736Z,999.38
2018-01-02T04:32:59.748Z,999.42
2018-01-02T04:33:59.760Z,999.40
2018-01-02T04:34:59.772Z,999.42
2018-01-02T04:35:59.791Z,999.43
2018-01-02T04:36:59.797Z,999.42
2018-01-02T04:37:59.810Z,999.45
2018-01-02T04:38:59.822Z,999.44
2018-01-02T04:39:59.835Z,999.45
2018-01-02T04:40:59.848Z,999.50
2018-01-02T04:41:59.862Z,999.47
2018-01-02T04:42:59.872Z,999.50
2018-01-02T04:43:59.886Z,999.56
2018-01-02T04:44:59.899Z,999.54
2018-01-02T04:45:59.912Z,999.56
2018-01-02T04:46:59.924Z,999.63
2018-01-02T04:47:59.936Z,999.63
2018-01-02T04:48:59.951Z,999.69
2018-01-02T04:49:59.962Z,999.69
2018-01-02T04:50:59.973Z,999.70
2018-01-02T04:51:59.985Z,999.74
2018-01-02T04:53:00.001Z,999.77
2018-01-02T04:54:00.012Z,999.79
2018-01-02T04:55:00.029Z,999.79
2018-01-02T04:56:00.037Z,999.84
2018-01-02T04:57:00.050Z,999.84
2018-01-02T04:58:00.071Z,999.89
2018-01-02T04:59:00.075Z,999.90
2018-01-02T05:00:00.088Z,999.91
2018-01-02T05:01:00.105Z,999.85
2018-01-02T05:02:00.116Z,999.85
2018-01-02T05:03:00.127Z,999.91
2018-01-02T05:04:00.141Z,999.91
2018-01-02T05:05:00.151Z,999.93
2018-01-02T05:06:00.167Z,999.96
2018-01-02T05:07:00.178Z,999.96
2018-01-02T05:08:00.192Z,1000.01
2018-01-02T05:09:00.204Z,1000.02
2018-01-02T05:10:00.222Z,1000.00
2018-01-02T05:11:00.231Z,1000.05
2018-01-02T05:12:00.245Z,1000.04
2018-01-02T05:13:00.256Z,1000.10
2018-01-02T05:14:00.269Z,1000.11
2018-01-02T05:15:00.281Z,1000.14
2018-01-02T05:16:00.294Z,1000.15
2018-01-02T05:17:00.307Z,1000.17
2018-01-02T05:18:00.320Z,1000.20
2018-01-02T05:19:00.331Z,1000.22
2018-01-02T05:20:00.347Z,1000.24
2018-01-02T05:21:00.357Z,1000.29
2018-01-02T05:22:00.370Z,1000.28
2018-01-02T05:23:00.385Z,1000.30
2018-01-02T05:24:00.402Z,1000.32
2018-01-02T05:25:00.409Z,1000.36
2018-01-02T05:26:00.425Z,1000.37
2018-01-02T05:27:00.433Z,1000.39
2018-01-02T05:28:00.446Z,1000.40
2018-01-02T05:29:00.485Z,1000.42
2018-01-02T05:30:00.472Z,1000.43
2018-01-02T05:31:00.485Z,1000.46
2018-01-02T05:32:00.496Z,1000.43
2018-01-02T05:33:00.516Z,1000.46
2018-01-02T05:34:00.523Z,1000.45
2018-01-02T05:35:00.538Z,1000.48
2018-01-02T05:36:00.548Z,1000.50
2018-01-02T05:37:00.563Z,1000.50
2018-01-02T05:38:00.574Z,1000.57
2018-01-02T05:39:00.587Z,1000.57
2018-01-02T05:40:00.602Z,1000.56
2018-01-02T05:41:00.613Z,1000.56
2018-01-02T05:42:00.652Z,1000.58
2018-01-02T05:43:00.648Z,1000.59
2018-01-02T05:44:00.650Z,1000.64
2018-01-02T05:45:00.664Z,1000.64
2018-01-02T05:46:00.677Z,1000.63
2018-01-02T05:47:00.689Z,1000.67
2018-01-02T05:48:00.702Z,1000.68
2018-01-02T05:49:00.715Z,1000.68
2018-01-02T05:50:00.849Z,1000.73
2018-01-02T05:51:00.740Z,1000.70
2018-01-02T05:52:00.750Z,1000.70
2018-01-02T05:53:00.764Z,1000.72
2018-01-02T05:54:00.777Z,1000.75
2018-01-02T05:55:00.794Z,1000.73
2018-01-02T05:56:00.803Z,1000.77
2018-01-02T05:57:00.815Z,1000.76
2018-01-02T05:58:00.870Z,1000.76
2018-01-02T05:59:00.846Z,1000.79
2018-01-02T06:00:00.852Z,1000.81
2018-01-02T06:01:00.865Z,1000.87
2018-01-02T06:02:00.879Z,1000.89
2018-01-02T06:03:00.889Z,1000.86
2018-01-02T06:04:00.902Z,1000.90
2018-01-02T06:05:00.917Z,1000.92
2018-01-02T06:06:00.940Z,1000.99
2018-01-02T06:07:00.944Z,1000.99
2018-01-02T06:08:00.954Z,1000.99
2018-01-02T06:09:00.967Z,1001.02
2018-01-02T06:10:00.978Z,1001.07
2018-01-02T06:11:00.993Z,1001.06
2018-01-02T06:12:01.005Z,1001.11
2018-01-02T06:13:01.017Z,1001.13
2018-01-02T06:14:01.033Z,1001.13
2018-01-02T06:15:01.042Z,1001.18
2018-01-02T06:16:01.056Z,1001.21
2018-01-02T06:17:01.071Z,1001.24
2018-01-02T06:18:01.082Z,1001.28
2018-01-02T06:19:01.094Z,1001.26
2018-01-02T06:20:01.106Z,1001.32
2018-01-02T06:21:01.118Z,1001.27
2018-01-02T06:22:01.132Z,1001.34
2018-01-02T06:23:01.145Z,1001.32
2018-01-02T06:24:01.158Z,1001.38
2018-01-02T06:25:01.172Z,1001.43
2018-01-02T06:26:01.183Z,1001.40
2018-01-02T06:27:01.216Z,1001.39
2018-01-02T06:28:01.306Z,1001.47
2018-01-02T06:29:01.223Z,1001.47
2018-01-02T06:30:01.235Z,1001.54
2018-01-02T06:31:01.245Z,1001.54
2018-01-02T06:32:01.261Z,1001.53
2018-01-02T06:33:01.272Z,1001.53
2018-01-02T06:34:01.285Z,1001.48
2018-01-02T06:35:01.298Z,1001.58
2018-01-02T06:36:01.308Z,1001.51
2018-01-02T06:37:01.322Z,1001.59
2018-01-02T06:38:01.334Z,1001.60
2018-01-02T06:39:01.347Z,1001.57
2018-01-02T06:40:01.359Z,1001.59
2018-01-02T06:41:01.373Z,1001.60
2018-01-02T06:42:01.387Z,1001.59
2018-01-02T06:43:01.398Z,1001.63
2018-01-02T06:44:01.410Z,1001.62
2018-01-02T06:45:01.428Z,1001.66
2018-01-02T06:46:01.443Z,1001.64
2018-01-02T06:47:01.450Z,1001.65
2018-01-02T06:48:01.464Z,1001.68
2018-01-02T06:49:01.475Z,1001.72
2018-01-02T06:50:01.490Z,1001.72
2018-01-02T06:51:01.499Z,1001.70
2018-01-02T06:52:01.510Z,1001.72
2018-01-02T06:53:01.526Z,1001.71
2018-01-02T06:54:01.537Z,1001.74
2018-01-02T06:55:01.549Z,1001.74
2018-01-02T06:56:01.563Z,1001.79
2018-01-02T06:57:01.592Z,1001.80
2018-01-02T06:58:01.594Z,1001.80
2018-01-02T06:59:01.599Z,1001.82
2018-01-02T07:00:01.611Z,1001.85
2018-01-02T07:01:01.627Z,1001.89
2018-01-02T07:02:01.640Z,1001.86
2018-01-02T07:03:01.652Z,1001.92
2018-01-02T07:04:01.665Z,1001.95
2018-01-02T07:05:01.676Z,1001.93
2018-01-02T07:06:01.698Z,1001.94
2018-01-02T07:07:01.702Z,1001.98
2018-01-02T07:08:01.714Z,1002.02
2018-01-02T07:09:01.731Z,1002.00
2018-01-02T07:10:01.738Z,1002.07
2018-01-02T07:11:01.751Z,1002.06
2018-01-02T07:12:01.765Z,1002.05
2018-01-02T07:13:01.779Z,1002.09
2018-01-02T07:14:01.791Z,1002.08
2018-01-02T07:15:01.804Z,1002.09
2018-01-02T07:16:01.817Z,1002.13
2018-01-02T07:17:01.829Z,1002.15
2018-01-02T07:18:01.843Z,1002.20
2018-01-02T07:19:01.856Z,1002.17
2018-01-02T07:20:01.868Z,1002.22
2018-01-02T07:21:01.881Z,1002.22
2018-01-02T07:22:01.894Z,1002.26
2018-01-02T07:23:01.905Z,1002.28
2018-01-02T07:24:01.932Z,1002.27
2018-01-02T07:25:01.933Z,1002.29
2018-01-02T07:26:01.946Z,1002.29
2018-01-02T07:27:01.960Z,1002.28
2018-01-02T07:28:01.969Z,1002.30
2018-01-02T07:29:01.987Z,1002.34
2018-01-02T07:30:01.997Z,1002.36
2018-01-02T07:31:02.009Z,1002.37
2018-01-02T07:32:02.023Z,1002.38
2018-01-02T07:33:02.037Z,1002.39
2018-01-02T07:34:02.050Z,1002.43
2018-01-02T07:35:02.064Z,1002.40
2018-01-02T07:36:02.077Z,1002.42
2018-01-02T07:37:02.089Z,1002.43
2018-01-02T07:38:02.101Z,1002.44
2018-01-02T07:39:02.113Z,1002.51
2018-01-02T07:40:02.128Z,1002.50
2018-01-02T07:41:02.140Z,1002.48
2018-01-02T07:42:02.152Z,1002.49
2018-01-02T07:43:02.165Z,1002.51
2018-01-02T07:44:02.183Z,1002.49
2018-01-02T07:45:02.193Z,1002.55
2018-01-02T07:46:02.206Z,1002.54
2018-01-02T07:47:02.218Z,1002.57
2018-01-02T07:48:02.235Z,1002.60
2018-01-02T07:49:02.248Z,1002.57
2018-01-02T07:50:02.260Z,1002.58
2018-01-02T07:51:02.269Z,1002.59
2018-01-02T07:52:02.282Z,1002.63
2018-01-02T07:53:02.297Z,1002.63
2018-01-02T07:54:02.309Z,1002.70
2018-01-02T07:55:02.423Z,1002.68
2018-01-02T07:56:02.333Z,1002.72
2018-01-02T07:57:02.347Z,1002.71
2018-01-02T07:58:02.358Z,1002.74
2018-01-02T07:59:02.376Z,1002.77
2018-01-02T08:00:02.384Z,1002.75
2018-01-02T08:01:02.403Z,1002.77
2018-01-02T08:02:02.413Z,1002.78
2018-01-02T08:03:02.424Z,1002.78
2018-01-02T08:04:02.436Z,1002.77
2018-01-02T08:05:02.451Z,1002.80
2018-01-02T08:06:02.467Z,1002.82
2018-01-02T08:07:02.479Z,1002.81
2018-01-02T08:08:02.492Z,1002.83
2018-01-02T08:09:02.508Z,1002.83
2018-01-02T08:10:02.521Z,1002.87
2018-01-02T08:11:02.529Z,1002.87
2018-01-02T08:12:02.585Z,1002.91
2018-01-02T08:13:02.555Z,1002.94
2018-01-02T08:14:02.571Z,1002.95
2018-01-02T08:15:02.586Z,1002.98
2018-01-02T08:16:02.610Z,1002.99
2018-01-02T08:17:02.608Z,1002.96
2018-01-02T08:18:02.622Z,1002.99
2018-01-02T08:19:02.640Z,1003.05
2018-01-02T08:20:02.648Z,1003.02
2018-01-02T08:21:02.662Z,1003.04
2018-01-02T08:22:02.676Z,1003.03
2018-01-02T08:23:02.684Z,1003.04
2018-01-02T08:24:02.710Z,1003.07
2018-01-02T08:25:02.735Z,1003.11
2018-01-02T08:26:02.717Z,1003.12
2018-01-02T08:27:02.729Z,1003.15
2018-01-02T08:28:02.744Z,1003.14
2018-01-02T08:29:02.775Z,1003.16
2018-01-02T08:30:02.772Z,1003.25
2018-01-02T08:31:02.783Z,1003.27
2018-01-02T08:32:02.797Z,1003.28
2018-01-02T08:33:02.808Z,1003.31
2018-01-02T08:34:02.833Z,1003.34
2018-01-02T08:35:02.836Z,1003.35
2018-01-02T08:36:02.848Z,1003.42
2018-01-02T08:37:02.859Z,1003.41
2018-01-02T08:38:02.874Z,1003.42
2018-01-02T08:39:02.885Z,1003.44
2018-01-02T08:40:03.202Z,1003.40
2018-01-02T08:41:02.912Z,1003.43
2018-01-02T08:42:02.926Z,1003.43
2018-01-02T08:43:02.936Z,1003.45
2018-01-02T08:44:02.949Z,1003.47
2018-01-02T08:45:02.963Z,1003.45
2018-01-02T08:46:02.979Z,1003.49
2018-01-02T08:47:02.990Z,1003.52
2018-01-02T08:48:03.003Z,1003.50
2018-01-02T08:49:03.016Z,1003.52
2018-01-02T08:50:03.031Z,1003.52
2018-01-02T08:51:03.046Z,1003.55
2018-01-02T08:52:03.054Z,1003.58
2018-01-02T08:53:03.077Z,1003.65
2018-01-02T08:54:03.081Z,1003.63
2018-01-02T08:55:03.096Z,1003.66
2018-01-02T08:56:03.110Z,1003.69
2018-01-02T08:57:03.119Z,1003.79
2018-01-02T08:58:03.133Z,1003.78
2018-01-02T08:59:03.146Z,1003.81
2018-01-02T09:00:03.159Z,1003.75
2018-01-02T09:01:03.177Z,1003.76
2018-01-02T09:02:03.216Z,1003.81
2018-01-02T09:03:03.329Z,1003.84
2018-01-02T09:05:03.233Z,1003.92
2018-01-02T09:06:03.242Z,1003.90
2018-01-02T09:07:03.260Z,1003.94
2018-01-02T09:08:03.262Z,1003.94
2018-01-02T09:09:03.275Z,1003.98
2018-01-02T09:10:03.291Z,1003.97
2018-01-02T09:11:03.306Z,1004.06
2018-01-02T09:12:03.313Z,1004.03
2018-01-02T09:13:03.328Z,1004.10
2018-01-02T09:14:03.343Z,1004.05
2018-01-02T09:15:03.356Z,1004.08
2018-01-02T09:16:03.365Z,1004.15
2018-01-02T09:17:03.386Z,1004.08
2018-01-02T09:18:03.392Z,1004.07
2018-01-02T09:19:03.406Z,1004.18
2018-01-02T09:20:03.417Z,1004.13
2018-01-02T09:21:03.882Z,1004.15
2018-01-02T09:22:03.446Z,1004.15
2018-01-02T09:23:03.457Z,1004.12
2018-01-02T09:24:03.471Z,1004.18
2018-01-02T09:25:03.483Z,1004.16
2018-01-02T09:26:03.493Z,1004.18
2018-01-02T09:27:03.515Z,1004.21
2018-01-02T09:28:03.525Z,1004.20
2018-01-02T09:29:03.532Z,1004.22
2018-01-02T09:30:03.546Z,1004.17
2018-01-02T09:31:03.559Z,1004.18
2018-01-02T09:32:03.571Z,1004.23
2018-01-02T09:33:03.588Z,1004.25
2018-01-02T09:34:03.601Z,1004.27
2018-01-02T09:35:03.611Z,1004.31
2018-01-02T09:36:03.631Z,1004.34
2018-01-02T09:37:03.637Z,1004.31
2018-01-02T09:38:03.655Z,1004.35
2018-01-02T09:39:03.661Z,1004.37
2018-01-02T09:40:03.685Z,1004.38
2018-01-02T09:41:03.688Z,1004.40
2018-01-02T09:42:03.704Z,1004.37
2018-01-02T09:43:03.715Z,1004.38
2018-01-02T09:44:03.724Z,1004.38
2018-01-02T09:45:03.749Z,1004.44
2018-01-02T09:46:03.752Z,1004.38
2018-01-02T09:47:04.965Z,1004.43
2018-01-02T09:49:04.949Z,1004.44
2018-01-02T09:50:06.241Z,1004.43
2018-01-02T09:51:07.232Z,1004.50
2018-01-02T09:52:06.069Z,1004.51
2018-01-02T09:53:04.548Z,1004.54
2018-01-02T09:54:04.714Z,1004.57
2018-01-02T09:55:03.865Z,1004.50
2018-01-02T09:56:04.310Z,1004.59
2018-01-02T09:57:03.897Z,1004.65
2018-01-02T09:58:03.905Z,1004.63
2018-01-02T09:59:03.921Z,1004.66
2018-01-02T10:00:03.931Z,1004.64
2018-01-02T10:01:03.945Z,1004.68
2018-01-02T10:02:03.956Z,1004.77
2018-01-02T10:03:03.969Z,1004.76
2018-01-02T10:04:03.981Z,1004.74
2018-01-02T10:05:04.032Z,1004.70
2018-01-02T10:06:04.013Z,1004.77
2018-01-02T10:07:04.046Z,1004.78
2018-01-02T10:08:04.035Z,1004.75
2018-01-02T10:09:04.050Z,1004.83
2018-01-02T10:10:04.072Z,1004.72
2018-01-02T10:11:04.073Z,1004.77
2018-01-02T10:12:04.086Z,1004.74
2018-01-02T10:13:04.100Z,1004.76
2018-01-02T10:14:04.160Z,1004.75
2018-01-02T10:15:04.124Z,1004.78
2018-01-02T10:16:04.144Z,1004.76
2018-01-02T10:17:04.151Z,1004.83
2018-01-02T10:18:04.163Z,1004.80
2018-01-02T10:19:04.427Z,1004.82
2018-01-02T10:20:04.314Z,1004.86
2018-01-02T10:21:04.200Z,1004.86
2018-01-02T10:22:05.032Z,1004.86
2018-01-02T10:23:04.225Z,1004.85
2018-01-02T10:24:04.237Z,1004.90
2018-01-02T10:25:04.250Z,1004.87
2018-01-02T10:26:04.267Z,1004.88
2018-01-02T10:27:04.276Z,1004.88
2018-01-02T10:29:04.304Z,1004.88
2018-01-02T10:30:04.317Z,1004.90
2018-01-02T10:31:04.334Z,1004.91
2018-01-02T10:32:04.339Z,1004.97
2018-01-02T10:33:04.352Z,1004.94
2018-01-02T10:34:04.369Z,1004.90
2018-01-02T10:35:04.376Z,1004.97
2018-01-02T10:36:04.404Z,1004.92
2018-01-02T10:37:04.658Z,1004.92
2018-01-02T10:38:04.417Z,1004.97
2018-01-02T10:39:04.425Z,1004.94
2018-01-02T10:40:04.445Z,1004.91
2018-01-02T10:41:04.459Z,1004.90
2018-01-02T10:42:05.242Z,1004.96
2018-01-02T10:43:04.477Z,1004.95
2018-01-02T10:44:04.546Z,1004.93
2018-01-02T10:45:04.508Z,1004.95
2018-01-02T10:46:04.518Z,1004.98
2018-01-02T10:47:04.535Z,1005.03
2018-01-02T10:48:05.483Z,1004.99
2018-01-02T10:49:04.555Z,1005.01
2018-01-02T10:50:04.569Z,1005.03
2018-01-02T10:51:04.579Z,1005.01
2018-01-02T10:52:04.591Z,1005.05
2018-01-02T10:53:04.604Z,1005.00
2018-01-02T10:54:04.630Z,1005.03
2018-01-02T10:55:04.630Z,1005.02
2018-01-02T10:56:04.653Z,1004.98
2018-01-02T10:57:04.661Z,1005.00
2018-01-02T10:58:06.925Z,1004.99
2018-01-02T10:59:04.682Z,1005.01
2018-01-02T11:00:04.927Z,1005.08
2018-01-02T11:01:04.732Z,1005.00
2018-01-02T11:02:04.725Z,1005.03
2018-01-02T11:03:04.741Z,1005.03
2018-01-02T11:04:04.754Z,1005.06
2018-01-02T11:05:04.763Z,1005.05
2018-01-02T11:06:04.779Z,1005.04
2018-01-02T11:07:04.787Z,1005.11
2018-01-02T11:08:04.823Z,1005.10
2018-01-02T11:09:04.815Z,1005.08
2018-01-02T11:10:04.826Z,1005.12
2018-01-02T11:11:04.849Z,1005.20
2018-01-02T11:12:04.854Z,1005.18
2018-01-02T11:13:04.865Z,1005.17
2018-01-02T11:14:04.896Z,1005.18
2018-01-02T11:15:04.896Z,1005.14
2018-01-02T11:16:04.905Z,1005.13
2018-01-02T11:17:05.738Z,1005.18
2018-01-02T11:18:04.949Z,1005.18
2018-01-02T11:19:04.944Z,1005.19
2018-01-02T11:20:04.956Z,1005.23
2018-01-02T11:21:04.970Z,1005.25
2018-01-02T11:22:05.200Z,1005.25
2018-01-02T11:23:06.583Z,1005.26
2018-01-02T11:24:05.007Z,1005.31
2018-01-02T11:25:05.029Z,1005.32
2018-01-02T11:26:05.033Z,1005.33
2018-01-02T11:27:05.045Z,1005.37
2018-01-02T11:28:05.061Z,1005.36
2018-01-02T11:29:05.073Z,1005.38
2018-01-02T11:30:05.086Z,1005.40
2018-01-02T11:31:05.116Z,1005.44
2018-01-02T11:32:05.111Z,1005.48
2018-01-02T11:33:05.125Z,1005.45
2018-01-02T11:34:05.175Z,1005.45
2018-01-02T11:35:05.604Z,1005.42
2018-01-02T11:36:05.586Z,1005.42
2018-01-02T11:37:05.177Z,1005.43
2018-01-02T11:38:05.188Z,1005.44
2018-01-02T11:39:07.556Z,1005.45
2018-01-02T11:40:05.216Z,1005.48
2018-01-02T11:41:05.451Z,1005.47
2018-01-02T11:42:05.243Z,1005.46
2018-01-02T11:43:05.261Z,1005.49
2018-01-02T11:44:05.268Z,1005.47
2018-01-02T11:45:05.284Z,1005.50
2018-01-02T11:46:05.502Z,1005.50
2018-01-02T11:47:05.307Z,1005.46
2018-01-02T11:48:05.323Z,1005.48
2018-01-02T11:49:05.335Z,1005.51
2018-01-02T11:52:06.444Z,1005.54
2018-01-02T11:53:07.230Z,1005.57
2018-01-02T11:54:06.456Z,1005.52
2018-01-02T11:55:05.413Z,1005.56
2018-01-02T11:56:05.428Z,1005.56
2018-01-02T11:57:05.446Z,1005.51
2018-01-02T11:58:05.457Z,1005.47
2018-01-02T11:59:05.890Z,1005.44
2018-01-02T12:00:05.475Z,1005.47
2018-01-02T12:01:07.537Z,1005.42
2018-01-02T12:02:05.506Z,1005.43
2018-01-02T12:03:05.540Z,1005.40
2018-01-02T12:04:05.528Z,1005.34
2018-01-02T12:05:05.543Z,1005.34
2018-01-02T12:06:07.679Z,1005.34
2018-01-02T12:08:05.582Z,1005.29
2018-01-02T12:09:05.597Z,1005.31
2018-01-02T12:10:05.607Z,1005.32
2018-01-02T12:11:05.620Z,1005.34
2018-01-02T12:12:05.634Z,1005.29
2018-01-02T12:13:05.647Z,1005.33
2018-01-02T12:14:05.661Z,1005.27
2018-01-02T12:15:05.674Z,1005.26
2018-01-02T12:16:05.687Z,1005.21
2018-01-02T12:17:05.709Z,1005.23
2018-01-02T12:18:05.816Z,1005.25
2018-01-02T12:19:05.895Z,1005.20
2018-01-02T12:20:05.743Z,1005.12
2018-01-02T12:21:05.753Z,1005.19
2018-01-02T12:22:05.773Z,1005.13